Chippewa Falls, WI

9:02 PM CST on December 28, 2014 (GMT -0600)
Lake Wissota | Change Station
CLOSE
Current Station
Personal Weather Station
Location: Chippewa Falls, WI
Elevation: 925 ft
Nearby Weather Stations

Elev 925 ft 44.98 °N, 91.34 °W | Updated 6 seconds ago

Clear
Clear
-0.6 °F
Feels Like -1 °F
N
0.0
Wind Variable Wind from NW
Gusts 0.0 mph

Today
High -- | Low -- °F
--% Chance of Precip.
Yesterday
High -- | Low -- °F
Precip. -- in
7:43 AM 4:31 PM
First Quarter, 54% visible
Pressure 30.35 in
Visibility 10.0 miles
Clouds Clear
Windchill -1 °F
Dew Point -1 °F
Humidity 99%
Rainfall 0.00 in
Snow Depth Not available.
UV 0 out of 12
Pollen .10 out of 12
Air Quality Not available.
Flu Activity Not available.
METAR KEAU 290256Z AUTO 06003KT 10SM CLR M15/M18 A3028 RMK AO2 SLP277 I3001 T11501178 53014

More Conditions Fewer Conditions

Pressure 30.35 in
Visibility 10.0 miles
Clouds Clear
Windchill -1 °F
Dew Point -1 °F
Humidity 99%
Rainfall 0.00 in
Snow Depth Not available.
UV 0 out of 12
Pollen .10 out of 12
Air Quality Not available.
Flu Activity Not available.
METAR KEAU 290256Z AUTO 06003KT 10SM CLR M15/M18 A3028 RMK AO2 SLP277 I3001 T11501178 53014

More Conditions Fewer Conditions

10-Day Weather Forecast

Almanac

Astronomy

Dec. 28, 2014 Rise Set
Actual Time
Civil Twilight
Nautical Twilight
Astronomical Twilight
Moon
Length of Visible Light
Length of Day
Tomorrow will be .
, % of the Moon is Illuminated

Today's Extremes

State Highs State Lows

Community

WunderPhotos

Upload Photos

1,781,508 photos uploaded!

WunderBlogs® & News

Nearby

Air Quality

  Air Quality AQ Index Pollutant
Not available.

Snow Depth

Station Depth Elevation

Earthquake Activity

City Distance Mag. Time & Date
Minimum magnitude displayed is 2.5.

Coastal Water Temperatures

Place Temperature

Nearby Weather Stations